Lecce Airport LIBN

Flugplatz Daten

Name: Lecce Airport

Ident: LIBN

Lat: 40,23920059

Long: 18,13330078

Platzhöhe: 156 ft

IataCode: LCC

City:

Metar

2022/08/13 17:55
LIBN 131755Z 33004KT 9999 -RA FEW025CB 21/21 Q1011 RMK BKN BKN070 VIS MIN 9999 WIND THR14 01002KT WIND THR32 36004KT BLU

Taf

2022/06/03 12:39
TAF TAF LIBN 031100Z 0312/0324 36012KT CAVOK
Gewünschte Webcam nicht vorhanden? Dann fügen Sie eine hinzu. Sie wird dann so schnell wie möglich freigeschaltet
Url: Title: